sensor_id;sensor_type;location;lat;lon;timestamp;pressure;altitude;pressure_sealevel;temperature;humidity
64025;BME280;50266;57.446;26.936;2023-02-10T00:00:34;99554.44;;;-3.24;100.0
64025;BME280;50266;57.446;26.936;2023-02-10T00:01:34;99547.68;;;-3.25;100.0
64025;BME280;50266;57.446;26.936;2023-02-10T00:02:34;99547.77;;;-3.38;100.0
64025;BME280;50266;57.446;26.936;2023-02-10T00:03:34;99553.52;;;-3.33;100.0
64025;BME280;50266;57.446;26.936;2023-02-10T00:04:34;99557.55;;;-3.27;100.0
64025;BME280;50266;57.446;26.936;2023-02-10T00:05:34;99546.15;;;-3.3;100.0
64025;BME280;50266;57.446;26.936;2023-02-10T00:06:34;99551.3;;;-3.25;100.0
64025;BME280;50266;57.446;26.936;2023-02-10T00:07:34;99545.04;;;-3.21;100.0
64025;BME280;50266;57.446;26.936;2023-02-10T00:08:34;99536.91;;;-3.21;100.0
64025;BME280;50266;57.446;26.936;2023-02-10T00:09:34;99546.02;;;-3.21;100.0
64025;BME280;50266;57.446;26.936;2023-02-10T00:10:34;99532.0;;;-3.16;100.0
64025;BME280;50266;57.446;26.936;2023-02-10T00:11:34;99534.38;;;-3.21;100.0
64025;BME280;50266;57.446;26.936;2023-02-10T00:12:37;99535.31;;;-3.18;100.0
64025;BME280;50266;57.446;26.936;2023-02-10T00:13:35;99522.95;;;-3.16;100.0
64025;BME280;50266;57.446;26.936;2023-02-10T00:14:34;99522.62;;;-3.21;100.0
64025;BME280;50266;57.446;26.936;2023-02-10T00:15:36;99510.69;;;-3.13;100.0
64025;BME280;50266;57.446;26.936;2023-02-10T00:16:34;99507.66;;;-3.14;100.0
64025;BME280;50266;57.446;26.936;2023-02-10T00:17:34;99504.48;;;-3.15;100.0
64025;BME280;50266;57.446;26.936;2023-02-10T00:18:34;99505.63;;;-3.12;100.0
64025;BME280;50266;57.446;26.936;2023-02-10T00:19:34;99495.21;;;-3.07;100.0
64025;BME280;50266;57.446;26.936;2023-02-10T00:20:34;99491.96;;;-3.07;100.0
64025;BME280;50266;57.446;26.936;2023-02-10T00:21:35;99495.77;;;-3.16;100.0
64025;BME280;50266;57.446;26.936;2023-02-10T00:22:35;99492.86;;;-3.18;100.0
64025;BME280;50266;57.446;26.936;2023-02-10T00:23:34;99498.31;;;-3.21;100.0
64025;BME280;50266;57.446;26.936;2023-02-10T00:24:34;99501.25;;;-3.18;100.0
64025;BME280;50266;57.446;26.936;2023-02-10T00:25:35;99507.17;;;-3.14;100.0
64025;BME280;50266;57.446;26.936;2023-02-10T00:26:35;99507.68;;;-3.11;100.0
64025;BME280;50266;57.446;26.936;2023-02-10T00:27:35;99512.83;;;-2.98;100.0
64025;BME280;50266;57.446;26.936;2023-02-10T00:28:35;99514.36;;;-3.05;100.0
64025;BME280;50266;57.446;26.936;2023-02-10T00:29:34;99511.73;;;-2.98;100.0
64025;BME280;50266;57.446;26.936;2023-02-10T00:30:35;99508.01;;;-3.09;100.0
64025;BME280;50266;57.446;26.936;2023-02-10T00:31:35;99503.41;;;-3.1;100.0
64025;BME280;50266;57.446;26.936;2023-02-10T00:32:35;99501.07;;;-3.03;100.0
64025;BME280;50266;57.446;26.936;2023-02-10T00:33:35;99491.39;;;-3.05;100.0
64025;BME280;50266;57.446;26.936;2023-02-10T00:34:35;99492.47;;;-3.05;100.0
64025;BME280;50266;57.446;26.936;2023-02-10T00:35:36;99494.38;;;-3.1;100.0
64025;BME280;50266;57.446;26.936;2023-02-10T00:36:35;99494.93;;;-3.13;100.0
64025;BME280;50266;57.446;26.936;2023-02-10T00:37:35;99485.95;;;-3.08;100.0
64025;BME280;50266;57.446;26.936;2023-02-10T00:38:35;99487.98;;;-3.05;100.0
64025;BME280;50266;57.446;26.936;2023-02-10T00:39:35;99483.06;;;-3.06;100.0
64025;BME280;50266;57.446;26.936;2023-02-10T00:40:35;99459.38;;;-3.08;100.0
64025;BME280;50266;57.446;26.936;2023-02-10T00:41:35;99447.24;;;-3.09;100.0
64025;BME280;50266;57.446;26.936;2023-02-10T00:42:35;99445.58;;;-3.06;100.0
64025;BME280;50266;57.446;26.936;2023-02-10T00:43:35;99437.72;;;-3.05;100.0
64025;BME280;50266;57.446;26.936;2023-02-10T00:44:35;99435.88;;;-3.04;100.0
64025;BME280;50266;57.446;26.936;2023-02-10T00:45:35;99436.98;;;-2.98;100.0
64025;BME280;50266;57.446;26.936;2023-02-10T00:46:35;99437.9;;;-2.97;100.0
64025;BME280;50266;57.446;26.936;2023-02-10T00:47:35;99434.92;;;-2.97;100.0
64025;BME280;50266;57.446;26.936;2023-02-10T00:48:35;99433.81;;;-3.0;100.0
64025;BME280;50266;57.446;26.936;2023-02-10T00:49:35;99434.38;;;-2.97;100.0
64025;BME280;50266;57.446;26.936;2023-02-10T00:50:35;99425.33;;;-3.01;100.0
64025;BME280;50266;57.446;26.936;2023-02-10T00:51:35;99414.18;;;-3.02;100.0
64025;BME280;50266;57.446;26.936;2023-02-10T00:52:35;99420.17;;;-2.92;100.0
64025;BME280;50266;57.446;26.936;2023-02-10T00:53:35;99417.59;;;-2.92;100.0
64025;BME280;50266;57.446;26.936;2023-02-10T00:54:35;99405.59;;;-2.95;100.0
64025;BME280;50266;57.446;26.936;2023-02-10T00:55:35;99412.28;;;-2.93;100.0
64025;BME280;50266;57.446;26.936;2023-02-10T00:56:35;99408.3;;;-2.95;100.0
64025;BME280;50266;57.446;26.936;2023-02-10T00:57:35;99406.38;;;-2.98;100.0
64025;BME280;50266;57.446;26.936;2023-02-10T00:58:35;99394.72;;;-2.96;100.0
64025;BME280;50266;57.446;26.936;2023-02-10T00:59:35;99401.8;;;-2.95;100.0
64025;BME280;50266;57.446;26.936;2023-02-10T01:00:35;99397.66;;;-2.93;100.0
64025;BME280;50266;57.446;26.936;2023-02-10T01:01:35;99394.93;;;-2.91;100.0
64025;BME280;50266;57.446;26.936;2023-02-10T01:02:35;99391.24;;;-2.95;100.0
64025;BME280;50266;57.446;26.936;2023-02-10T01:03:35;99380.72;;;-2.98;100.0
64025;BME280;50266;57.446;26.936;2023-02-10T01:04:35;99386.95;;;-2.9;100.0
64025;BME280;50266;57.446;26.936;2023-02-10T01:05:35;99382.17;;;-2.88;100.0
64025;BME280;50266;57.446;26.936;2023-02-10T01:06:35;99385.05;;;-2.9;100.0
64025;BME280;50266;57.446;26.936;2023-02-10T01:07:35;99389.81;;;-2.88;100.0
64025;BME280;50266;57.446;26.936;2023-02-10T01:08:35;99381.74;;;-2.88;100.0
64025;BME280;50266;57.446;26.936;2023-02-10T01:09:35;99379.96;;;-2.9;100.0
64025;BME280;50266;57.446;26.936;2023-02-10T01:10:35;99377.35;;;-2.88;100.0
64025;BME280;50266;57.446;26.936;2023-02-10T01:11:35;99376.08;;;-2.86;100.0
64025;BME280;50266;57.446;26.936;2023-02-10T01:12:35;99370.95;;;-2.87;100.0
64025;BME280;50266;57.446;26.936;2023-02-10T01:13:35;99371.61;;;-2.88;100.0
64025;BME280;50266;57.446;26.936;2023-02-10T01:14:35;99370.27;;;-2.88;100.0
64025;BME280;50266;57.446;26.936;2023-02-10T01:15:35;99377.42;;;-2.89;100.0
64025;BME280;50266;57.446;26.936;2023-02-10T01:16:35;99370.58;;;-2.88;100.0
64025;BME280;50266;57.446;26.936;2023-02-10T01:17:35;99365.53;;;-2.87;100.0
64025;BME280;50266;57.446;26.936;2023-02-10T01:18:36;99364.23;;;-2.87;100.0
64025;BME280;50266;57.446;26.936;2023-02-10T01:19:35;99365.06;;;-2.88;100.0
64025;BME280;50266;57.446;26.936;2023-02-10T01:20:37;99355.17;;;-2.9;100.0
64025;BME280;50266;57.446;26.936;2023-02-10T01:21:35;99352.68;;;-2.91;100.0
64025;BME280;50266;57.446;26.936;2023-02-10T01:22:35;99346.27;;;-2.9;100.0
64025;BME280;50266;57.446;26.936;2023-02-10T01:23:35;99351.36;;;-2.84;100.0
64025;BME280;50266;57.446;26.936;2023-02-10T01:24:35;99345.83;;;-2.89;100.0
64025;BME280;50266;57.446;26.936;2023-02-10T01:25:35;99343.42;;;-2.87;100.0
64025;BME280;50266;57.446;26.936;2023-02-10T01:26:35;99350.52;;;-2.86;100.0
64025;BME280;50266;57.446;26.936;2023-02-10T01:27:35;99348.52;;;-2.83;100.0
64025;BME280;50266;57.446;26.936;2023-02-10T01:28:36;99344.27;;;-2.81;100.0
64025;BME280;50266;57.446;26.936;2023-02-10T01:29:35;99340.28;;;-2.83;100.0
64025;BME280;50266;57.446;26.936;2023-02-10T01:30:35;99336.92;;;-2.87;100.0
64025;BME280;50266;57.446;26.936;2023-02-10T01:31:35;99335.31;;;-2.87;100.0
64025;BME280;50266;57.446;26.936;2023-02-10T01:32:35;99332.8;;;-2.86;100.0
64025;BME280;50266;57.446;26.936;2023-02-10T01:33:36;99330.27;;;-2.84;100.0
64025;BME280;50266;57.446;26.936;2023-02-10T01:34:36;99327.94;;;-2.83;100.0
64025;BME280;50266;57.446;26.936;2023-02-10T01:35:37;99321.44;;;-2.87;100.0
64025;BME280;50266;57.446;26.936;2023-02-10T01:36:35;99318.16;;;-2.81;100.0
64025;BME280;50266;57.446;26.936;2023-02-10T01:37:35;99312.62;;;-2.84;100.0
64025;BME280;50266;57.446;26.936;2023-02-10T01:38:36;99318.3;;;-2.83;100.0
64025;BME280;50266;57.446;26.936;2023-02-10T01:39:36;99319.89;;;-2.85;100.0
64025;BME280;50266;57.446;26.936;2023-02-10T01:40:36;99319.36;;;-2.82;100.0
64025;BME280;50266;57.446;26.936;2023-02-10T01:41:36;99312.84;;;-2.84;100.0
64025;BME280;50266;57.446;26.936;2023-02-10T01:42:36;99305.12;;;-2.87;100.0
64025;BME280;50266;57.446;26.936;2023-02-10T01:43:58;99306.8;;;-2.83;100.0
64025;BME280;50266;57.446;26.936;2023-02-10T01:45:41;99303.28;;;-2.8;100.0
64025;BME280;50266;57.446;26.936;2023-02-10T01:46:40;99298.26;;;-2.8;100.0
64025;BME280;50266;57.446;26.936;2023-02-10T01:47:41;99297.92;;;-2.8;100.0
64025;BME280;50266;57.446;26.936;2023-02-10T01:48:40;99283.3;;;-2.76;100.0
64025;BME280;50266;57.446;26.936;2023-02-10T01:49:42;99292.71;;;-2.72;100.0
64025;BME280;50266;57.446;26.936;2023-02-10T01:50:42;99291.89;;;-2.75;100.0
64025;BME280;50266;57.446;26.936;2023-02-10T01:51:42;99286.83;;;-2.77;100.0
64025;BME280;50266;57.446;26.936;2023-02-10T01:52:41;99292.91;;;-2.74;100.0
64025;BME280;50266;57.446;26.936;2023-02-10T01:53:41;99287.45;;;-2.79;100.0
64025;BME280;50266;57.446;26.936;2023-02-10T01:54:42;99286.7;;;-2.75;100.0
64025;BME280;50266;57.446;26.936;2023-02-10T01:55:41;99275.02;;;-2.77;100.0
64025;BME280;50266;57.446;26.936;2023-02-10T01:56:41;99278.39;;;-2.74;100.0
64025;BME280;50266;57.446;26.936;2023-02-10T01:57:41;99277.22;;;-2.76;100.0
64025;BME280;50266;57.446;26.936;2023-02-10T01:58:41;99279.09;;;-2.78;100.0
64025;BME280;50266;57.446;26.936;2023-02-10T01:59:41;99277.73;;;-2.74;100.0
64025;BME280;50266;57.446;26.936;2023-02-10T02:00:41;99271.34;;;-2.73;100.0
64025;BME280;50266;57.446;26.936;2023-02-10T02:01:41;99264.56;;;-2.7;100.0
64025;BME280;50266;57.446;26.936;2023-02-10T02:02:41;99256.98;;;-2.7;100.0
64025;BME280;50266;57.446;26.936;2023-02-10T02:03:41;99254.77;;;-2.66;100.0
64025;BME280;50266;57.446;26.936;2023-02-10T02:04:50;99245.47;;;-2.68;100.0
64025;BME280;50266;57.446;26.936;2023-02-10T02:05:42;99243.57;;;-2.72;100.0
64025;BME280;50266;57.446;26.936;2023-02-10T02:06:42;99236.79;;;-2.72;100.0
64025;BME280;50266;57.446;26.936;2023-02-10T02:07:42;99229.81;;;-2.72;100.0
64025;BME280;50266;57.446;26.936;2023-02-10T02:08:42;99227.41;;;-2.75;100.0
64025;BME280;50266;57.446;26.936;2023-02-10T02:09:42;99215.72;;;-2.72;100.0
64025;BME280;50266;57.446;26.936;2023-02-10T02:10:53;99213.08;;;-2.7;100.0
64025;BME280;50266;57.446;26.936;2023-02-10T02:12:58;99203.0;;;-2.66;100.0
64025;BME280;50266;57.446;26.936;2023-02-10T02:14:10;99207.5;;;-2.65;100.0
64025;BME280;50266;57.446;26.936;2023-02-10T02:15:57;99197.12;;;-2.64;100.0
64025;BME280;50266;57.446;26.936;2023-02-10T02:21:08;99176.42;;;-2.61;100.0
64025;BME280;50266;57.446;26.936;2023-02-10T02:23:17;99179.67;;;-2.55;100.0
64025;BME280;50266;57.446;26.936;2023-02-10T02:24:23;99175.75;;;-2.57;100.0
64025;BME280;50266;57.446;26.936;2023-02-10T02:25:18;99181.27;;;-2.53;100.0
64025;BME280;50266;57.446;26.936;2023-02-10T02:28:24;99166.5;;;-2.55;100.0
64025;BME280;50266;57.446;26.936;2023-02-10T02:30:32;99155.3;;;-2.55;100.0
64025;BME280;50266;57.446;26.936;2023-02-10T02:32:34;99147.74;;;-2.54;100.0
64025;BME280;50266;57.446;26.936;2023-02-10T02:33:39;99148.78;;;-2.52;100.0
64025;BME280;50266;57.446;26.936;2023-02-10T02:35:41;99149.8;;;-2.49;100.0
64025;BME280;50266;57.446;26.936;2023-02-10T02:37:44;99148.11;;;-2.41;100.0
64025;BME280;50266;57.446;26.936;2023-02-10T02:38:44;99141.77;;;-2.44;100.0
64025;BME280;50266;57.446;26.936;2023-02-10T02:39:44;99138.64;;;-2.42;100.0
64025;BME280;50266;57.446;26.936;2023-02-10T02:40:44;99139.09;;;-2.43;100.0
64025;BME280;50266;57.446;26.936;2023-02-10T02:41:44;99139.7;;;-2.41;100.0
64025;BME280;50266;57.446;26.936;2023-02-10T02:42:44;99132.42;;;-2.4;100.0
64025;BME280;50266;57.446;26.936;2023-02-10T02:43:44;99135.41;;;-2.43;100.0
64025;BME280;50266;57.446;26.936;2023-02-10T02:44:45;99138.06;;;-2.4;100.0
64025;BME280;50266;57.446;26.936;2023-02-10T02:45:55;99146.3;;;-2.37;100.0
64025;BME280;50266;57.446;26.936;2023-02-10T02:46:56;99139.47;;;-2.37;100.0
64025;BME280;50266;57.446;26.936;2023-02-10T02:49:12;99137.7;;;-2.32;100.0
64025;BME280;50266;57.446;26.936;2023-02-10T02:51:08;99125.08;;;-2.33;100.0
64025;BME280;50266;57.446;26.936;2023-02-10T02:52:04;99119.67;;;-2.34;100.0
64025;BME280;50266;57.446;26.936;2023-02-10T02:53:13;99119.94;;;-2.34;100.0
64025;BME280;50266;57.446;26.936;2023-02-10T02:54:10;99118.28;;;-2.32;100.0
64025;BME280;50266;57.446;26.936;2023-02-10T02:55:12;99112.1;;;-2.29;100.0
64025;BME280;50266;57.446;26.936;2023-02-10T02:56:28;99107.71;;;-2.32;100.0
64025;BME280;50266;57.446;26.936;2023-02-10T02:57:33;99108.28;;;-2.27;100.0
64025;BME280;50266;57.446;26.936;2023-02-10T02:59:32;99101.41;;;-2.28;100.0
64025;BME280;50266;57.446;26.936;2023-02-10T03:00:26;99094.73;;;-2.28;100.0
64025;BME280;50266;57.446;26.936;2023-02-10T03:01:29;99087.0;;;-2.23;100.0
64025;BME280;50266;57.446;26.936;2023-02-10T03:02:28;99084.73;;;-2.24;100.0
64025;BME280;50266;57.446;26.936;2023-02-10T03:03:28;99085.69;;;-2.25;100.0
64025;BME280;50266;57.446;26.936;2023-02-10T03:04:31;99087.22;;;-2.2;100.0
64025;BME280;50266;57.446;26.936;2023-02-10T03:05:29;99092.39;;;-2.19;100.0
64025;BME280;50266;57.446;26.936;2023-02-10T03:06:29;99093.89;;;-2.2;100.0
64025;BME280;50266;57.446;26.936;2023-02-10T03:07:28;99089.24;;;-2.21;100.0
64025;BME280;50266;57.446;26.936;2023-02-10T03:08:29;99088.81;;;-2.19;100.0
64025;BME280;50266;57.446;26.936;2023-02-10T03:09:29;99088.32;;;-2.16;100.0
64025;BME280;50266;57.446;26.936;2023-02-10T03:10:29;99089.62;;;-2.19;100.0
64025;BME280;50266;57.446;26.936;2023-02-10T03:11:29;99084.95;;;-2.16;100.0
64025;BME280;50266;57.446;26.936;2023-02-10T03:12:29;99085.31;;;-2.12;100.0
64025;BME280;50266;57.446;26.936;2023-02-10T03:13:29;99084.32;;;-2.12;100.0
64025;BME280;50266;57.446;26.936;2023-02-10T03:14:29;99082.91;;;-2.09;100.0
64025;BME280;50266;57.446;26.936;2023-02-10T03:15:29;99076.64;;;-2.13;100.0
64025;BME280;50266;57.446;26.936;2023-02-10T03:16:29;99069.48;;;-2.16;100.0
64025;BME280;50266;57.446;26.936;2023-02-10T03:17:29;99054.41;;;-2.15;100.0
64025;BME280;50266;57.446;26.936;2023-02-10T03:18:29;99061.69;;;-2.14;100.0
64025;BME280;50266;57.446;26.936;2023-02-10T03:19:29;99052.55;;;-2.12;100.0
64025;BME280;50266;57.446;26.936;2023-02-10T03:20:29;99050.19;;;-2.13;100.0
64025;BME280;50266;57.446;26.936;2023-02-10T03:21:29;99043.92;;;-2.12;100.0
64025;BME280;50266;57.446;26.936;2023-02-10T03:22:29;99038.17;;;-2.15;100.0
64025;BME280;50266;57.446;26.936;2023-02-10T03:23:29;99047.34;;;-2.12;100.0
64025;BME280;50266;57.446;26.936;2023-02-10T03:24:29;99040.66;;;-2.14;100.0
64025;BME280;50266;57.446;26.936;2023-02-10T03:25:29;99037.62;;;-2.14;100.0
64025;BME280;50266;57.446;26.936;2023-02-10T03:26:29;99049.45;;;-2.14;100.0
64025;BME280;50266;57.446;26.936;2023-02-10T03:27:29;99041.35;;;-2.14;100.0
64025;BME280;50266;57.446;26.936;2023-02-10T03:28:29;99042.42;;;-2.08;100.0
64025;BME280;50266;57.446;26.936;2023-02-10T03:29:29;99050.14;;;-2.09;100.0
64025;BME280;50266;57.446;26.936;2023-02-10T03:30:29;99048.73;;;-2.11;100.0
64025;BME280;50266;57.446;26.936;2023-02-10T03:31:29;99051.64;;;-2.1;100.0
64025;BME280;50266;57.446;26.936;2023-02-10T03:32:29;99051.03;;;-2.1;100.0
64025;BME280;50266;57.446;26.936;2023-02-10T03:33:29;99024.84;;;-2.13;100.0
64025;BME280;50266;57.446;26.936;2023-02-10T03:34:29;99026.85;;;-2.1;100.0
64025;BME280;50266;57.446;26.936;2023-02-10T03:35:29;99026.66;;;-2.11;100.0
64025;BME280;50266;57.446;26.936;2023-02-10T03:36:29;99029.06;;;-2.15;100.0
64025;BME280;50266;57.446;26.936;2023-02-10T03:37:29;99028.36;;;-2.14;100.0
64025;BME280;50266;57.446;26.936;2023-02-10T03:38:29;99016.7;;;-2.17;100.0
64025;BME280;50266;57.446;26.936;2023-02-10T03:39:29;99018.43;;;-2.14;100.0
64025;BME280;50266;57.446;26.936;2023-02-10T03:40:29;99016.48;;;-2.14;100.0
64025;BME280;50266;57.446;26.936;2023-02-10T03:41:29;99006.48;;;-2.18;100.0
64025;BME280;50266;57.446;26.936;2023-02-10T03:42:29;99012.19;;;-2.19;100.0
64025;BME280;50266;57.446;26.936;2023-02-10T03:43:29;98999.7;;;-2.16;100.0
64025;BME280;50266;57.446;26.936;2023-02-10T03:44:29;98999.61;;;-2.17;100.0
64025;BME280;50266;57.446;26.936;2023-02-10T03:45:29;98997.38;;;-2.21;100.0
64025;BME280;50266;57.446;26.936;2023-02-10T03:46:29;98998.97;;;-2.19;100.0
64025;BME280;50266;57.446;26.936;2023-02-10T03:47:29;98994.62;;;-2.17;100.0
64025;BME280;50266;57.446;26.936;2023-02-10T03:48:29;99002.48;;;-2.16;100.0
64025;BME280;50266;57.446;26.936;2023-02-10T03:49:29;99001.55;;;-2.19;100.0
64025;BME280;50266;57.446;26.936;2023-02-10T03:50:29;98993.02;;;-2.2;100.0
64025;BME280;50266;57.446;26.936;2023-02-10T03:51:29;98987.16;;;-2.22;100.0
64025;BME280;50266;57.446;26.936;2023-02-10T03:52:29;98984.62;;;-2.21;100.0
64025;BME280;50266;57.446;26.936;2023-02-10T03:53:30;98989.03;;;-2.21;100.0
64025;BME280;50266;57.446;26.936;2023-02-10T03:54:29;98983.0;;;-2.21;100.0
64025;BME280;50266;57.446;26.936;2023-02-10T03:55:29;98989.03;;;-2.12;100.0
64025;BME280;50266;57.446;26.936;2023-02-10T03:56:29;98980.59;;;-2.17;100.0
64025;BME280;50266;57.446;26.936;2023-02-10T03:57:29;98978.81;;;-2.18;100.0
64025;BME280;50266;57.446;26.936;2023-02-10T03:58:29;98981.96;;;-2.16;100.0
64025;BME280;50266;57.446;26.936;2023-02-10T03:59:29;98979.53;;;-2.12;100.0
64025;BME280;50266;57.446;26.936;2023-02-10T04:00:29;98974.39;;;-2.12;100.0
64025;BME280;50266;57.446;26.936;2023-02-10T04:01:29;98968.94;;;-2.13;100.0
64025;BME280;50266;57.446;26.936;2023-02-10T04:02:29;98980.63;;;-2.12;100.0
64025;BME280;50266;57.446;26.936;2023-02-10T04:03:29;98975.82;;;-2.11;100.0
64025;BME280;50266;57.446;26.936;2023-02-10T04:04:29;98981.77;;;-2.14;100.0
64025;BME280;50266;57.446;26.936;2023-02-10T04:05:29;98977.16;;;-2.15;100.0
64025;BME280;50266;57.446;26.936;2023-02-10T04:06:29;98972.37;;;-2.14;100.0
64025;BME280;50266;57.446;26.936;2023-02-10T04:07:29;98963.73;;;-2.11;100.0
64025;BME280;50266;57.446;26.936;2023-02-10T04:08:29;98964.46;;;-2.12;100.0
64025;BME280;50266;57.446;26.936;2023-02-10T04:09:29;98964.13;;;-2.14;100.0
64025;BME280;50266;57.446;26.936;2023-02-10T04:10:29;98947.28;;;-2.12;100.0
64025;BME280;50266;57.446;26.936;2023-02-10T04:11:29;98945.55;;;-2.1;100.0
64025;BME280;50266;57.446;26.936;2023-02-10T04:12:30;98939.57;;;-2.12;100.0
64025;BME280;50266;57.446;26.936;2023-02-10T04:13:30;98943.81;;;-2.1;100.0
64025;BME280;50266;57.446;26.936;2023-02-10T04:14:29;98957.36;;;-2.09;100.0
64025;BME280;50266;57.446;26.936;2023-02-10T04:15:30;98956.81;;;-2.12;100.0
64025;BME280;50266;57.446;26.936;2023-02-10T04:16:30;98951.73;;;-2.1;100.0
64025;BME280;50266;57.446;26.936;2023-02-10T04:17:30;98943.48;;;-2.15;100.0
64025;BME280;50266;57.446;26.936;2023-02-10T04:18:30;98944.91;;;-2.15;100.0
64025;BME280;50266;57.446;26.936;2023-02-10T04:19:30;98932.24;;;-2.14;100.0
64025;BME280;50266;57.446;26.936;2023-02-10T04:20:30;98928.82;;;-2.09;100.0
64025;BME280;50266;57.446;26.936;2023-02-10T04:21:30;98933.59;;;-2.11;100.0
64025;BME280;50266;57.446;26.936;2023-02-10T04:22:30;98940.28;;;-2.07;100.0
64025;BME280;50266;57.446;26.936;2023-02-10T04:23:30;98940.81;;;-2.12;100.0
64025;BME280;50266;57.446;26.936;2023-02-10T04:24:30;98939.17;;;-2.11;100.0
64025;BME280;50266;57.446;26.936;2023-02-10T04:25:30;98931.75;;;-2.09;100.0
64025;BME280;50266;57.446;26.936;2023-02-10T04:26:30;98918.41;;;-2.14;100.0
64025;BME280;50266;57.446;26.936;2023-02-10T04:27:30;98926.44;;;-2.09;100.0
64025;BME280;50266;57.446;26.936;2023-02-10T04:28:30;98918.76;;;-2.15;100.0
64025;BME280;50266;57.446;26.936;2023-02-10T04:29:30;98917.44;;;-2.12;100.0
64025;BME280;50266;57.446;26.936;2023-02-10T04:30:30;98920.62;;;-2.14;100.0
64025;BME280;50266;57.446;26.936;2023-02-10T04:31:30;98920.57;;;-2.13;100.0
64025;BME280;50266;57.446;26.936;2023-02-10T04:32:30;98913.45;;;-2.13;100.0
64025;BME280;50266;57.446;26.936;2023-02-10T04:33:30;98905.97;;;-2.13;100.0
64025;BME280;50266;57.446;26.936;2023-02-10T04:34:30;98906.22;;;-2.17;100.0
64025;BME280;50266;57.446;26.936;2023-02-10T04:35:30;98900.36;;;-2.19;100.0
64025;BME280;50266;57.446;26.936;2023-02-10T04:36:30;98893.19;;;-2.16;100.0
64025;BME280;50266;57.446;26.936;2023-02-10T04:37:30;98899.66;;;-2.16;100.0
64025;BME280;50266;57.446;26.936;2023-02-10T04:38:30;98903.64;;;-2.11;100.0
64025;BME280;50266;57.446;26.936;2023-02-10T04:39:30;98902.86;;;-2.1;100.0
64025;BME280;50266;57.446;26.936;2023-02-10T04:40:30;98906.89;;;-2.09;100.0
64025;BME280;50266;57.446;26.936;2023-02-10T04:41:30;98903.64;;;-2.09;100.0
64025;BME280;50266;57.446;26.936;2023-02-10T04:42:30;98891.34;;;-2.12;100.0
64025;BME280;50266;57.446;26.936;2023-02-10T04:43:31;98867.41;;;-2.11;100.0
64025;BME280;50266;57.446;26.936;2023-02-10T04:44:30;98881.06;;;-2.08;100.0
64025;BME280;50266;57.446;26.936;2023-02-10T04:45:30;98878.12;;;-2.12;100.0
64025;BME280;50266;57.446;26.936;2023-02-10T04:46:30;98873.84;;;-2.08;100.0
64025;BME280;50266;57.446;26.936;2023-02-10T04:47:30;98870.77;;;-2.05;100.0
64025;BME280;50266;57.446;26.936;2023-02-10T04:48:30;98879.78;;;-2.03;100.0
64025;BME280;50266;57.446;26.936;2023-02-10T04:49:30;98881.76;;;-2.02;100.0
64025;BME280;50266;57.446;26.936;2023-02-10T04:50:30;98877.83;;;-2.01;100.0
64025;BME280;50266;57.446;26.936;2023-02-10T04:51:31;98874.98;;;-2.04;100.0
64025;BME280;50266;57.446;26.936;2023-02-10T04:52:31;98869.29;;;-2.02;100.0
64025;BME280;50266;57.446;26.936;2023-02-10T04:53:31;98872.0;;;-2.0;100.0
64025;BME280;50266;57.446;26.936;2023-02-10T04:54:31;98872.75;;;-2.0;100.0
64025;BME280;50266;57.446;26.936;2023-02-10T04:55:31;98867.47;;;-2.04;100.0
64025;BME280;50266;57.446;26.936;2023-02-10T04:56:31;98871.08;;;-2.02;100.0
64025;BME280;50266;57.446;26.936;2023-02-10T04:57:31;98865.94;;;-2.01;100.0
64025;BME280;50266;57.446;26.936;2023-02-10T04:58:31;98858.84;;;-1.99;100.0
64025;BME280;50266;57.446;26.936;2023-02-10T04:59:31;98852.14;;;-2.0;100.0
64025;BME280;50266;57.446;26.936;2023-02-10T05:00:31;98851.76;;;-2.0;100.0
64025;BME280;50266;57.446;26.936;2023-02-10T05:01:31;98851.16;;;-1.99;100.0
64025;BME280;50266;57.446;26.936;2023-02-10T05:02:31;98854.22;;;-1.99;100.0
64025;BME280;50266;57.446;26.936;2023-02-10T05:03:31;98837.09;;;-1.99;100.0
64025;BME280;50266;57.446;26.936;2023-02-10T05:04:31;98837.97;;;-1.97;100.0
64025;BME280;50266;57.446;26.936;2023-02-10T05:05:31;98833.25;;;-1.97;100.0
64025;BME280;50266;57.446;26.936;2023-02-10T05:06:31;98834.11;;;-1.97;100.0
64025;BME280;50266;57.446;26.936;2023-02-10T05:07:31;98828.19;;;-1.97;100.0
64025;BME280;50266;57.446;26.936;2023-02-10T05:08:31;98826.86;;;-1.98;100.0
64025;BME280;50266;57.446;26.936;2023-02-10T05:09:31;98829.22;;;-1.97;100.0
64025;BME280;50266;57.446;26.936;2023-02-10T05:10:31;98826.34;;;-1.96;100.0
64025;BME280;50266;57.446;26.936;2023-02-10T05:11:31;98821.35;;;-1.95;100.0
64025;BME280;50266;57.446;26.936;2023-02-10T05:12:31;98826.23;;;-1.95;100.0
64025;BME280;50266;57.446;26.936;2023-02-10T05:13:31;98822.02;;;-1.97;100.0
64025;BME280;50266;57.446;26.936;2023-02-10T05:14:31;98820.89;;;-1.95;100.0
64025;BME280;50266;57.446;26.936;2023-02-10T05:15:31;98820.87;;;-1.88;100.0
64025;BME280;50266;57.446;26.936;2023-02-10T05:16:31;98815.96;;;-1.9;100.0
64025;BME280;50266;57.446;26.936;2023-02-10T05:17:31;98809.64;;;-1.91;100.0
64025;BME280;50266;57.446;26.936;2023-02-10T05:18:31;98803.82;;;-1.88;100.0
64025;BME280;50266;57.446;26.936;2023-02-10T05:19:31;98801.03;;;-1.89;100.0
64025;BME280;50266;57.446;26.936;2023-02-10T05:20:31;98794.05;;;-1.92;100.0
64025;BME280;50266;57.446;26.936;2023-02-10T05:21:31;98794.77;;;-1.86;100.0
64025;BME280;50266;57.446;26.936;2023-02-10T05:22:34;98801.57;;;-1.84;100.0
64025;BME280;50266;57.446;26.936;2023-02-10T05:23:32;98814.27;;;-1.82;100.0
64025;BME280;50266;57.446;26.936;2023-02-10T05:24:31;98809.16;;;-1.84;100.0
64025;BME280;50266;57.446;26.936;2023-02-10T05:25:31;98809.3;;;-1.79;100.0
64025;BME280;50266;57.446;26.936;2023-02-10T05:26:31;98795.56;;;-1.81;100.0
64025;BME280;50266;57.446;26.936;2023-02-10T05:27:32;98804.5;;;-1.8;100.0
64025;BME280;50266;57.446;26.936;2023-02-10T05:28:31;98798.52;;;-1.8;100.0
64025;BME280;50266;57.446;26.936;2023-02-10T05:29:31;98797.62;;;-1.77;100.0
64025;BME280;50266;57.446;26.936;2023-02-10T05:30:31;98796.26;;;-1.76;100.0
64025;BME280;50266;57.446;26.936;2023-02-10T05:31:31;98789.05;;;-1.79;100.0
64025;BME280;50266;57.446;26.936;2023-02-10T05:32:32;98788.38;;;-1.8;100.0
64025;BME280;50266;57.446;26.936;2023-02-10T05:33:32;98784.95;;;-1.79;100.0